Terminal Aerodrome Forecast
Issued by NWS

Home | Current Version | Previous Version | Text Only | Print | Product List | Glossary On
Versions: 1 2 3 4 5 6 7 8 9 10 11
000
FTUS45 KFGZ 221700
TAFSEZ
TAF
KSEZ 221739Z 2218/2318 36009G18KT P6SM FEW060
     FM230300 04009KT P6SM SKC
     FM231200 05012G30KT P6SM SKC=

USA.gov is the U.S. government's official web portal to all federal, state and local government web resources and services.